Cardwell, Montana
Current Conditions -  °F | °C
As of 5:53 AM on Friday 28 Nov 2014 (Local Time) from KBTM Reporting Station
Broken Clouds Broken Clouds  
Wind Chill: 39°   Ceiling: 5000
Heat Index: 44°   Visibility: 10mi
Dew Point: 27°   Wind: 9mph
Humidity: 51%   Direction: 200°SSW
Pressure: 29.74"   Gusts: 18mph
Location:  45.86°N, 111.96°W
Report Text: KBTM 281253Z AUTO 20008G16KT 10SM BKN050 07/M03 A2974 RMK AO2 SLP054 T00671028
Loading
Personal Weather Stations






























Interactive Weather Map New forecast layout! Learn more

10-Day Weather Forecast

Advertisements
Track Severe Weather on mobile